Terminal Aerodrome Forecast
Issued by NWS

Home | Current Version | Previous Version | Text Only | Print | Product List | Glossary On
Versions: 1 2 3 4 5 6 7 8 9 10 11 12 13 14 15 16 17 18 19 20 21 22 23 24 25 26 27 28 29
000
FTUS43 KPAH 261100
TAFOWB
TAF
KOWB 261139Z 2612/2712 00000KT 4SM BR SCT250
     FM261300 VRB03KT P6SM SCT250
     FM261600 05005KT P6SM SCT035
     FM270000 00000KT P6SM FEW050 SCT250
     FM270800 00000KT 3SM BR FEW050 SCT250=

USA.gov is the U.S. government's official web portal to all federal, state and local government web resources and services.